This is the latest recevied weather packets stored in our database for station/object SQ9IWE-13. If no packets are shown the sender has not sent any weather packets the latest 10 day(s).
| Time | Temp. | Humidity | Pressure | Rain* | Wind** | Luminosity | Snow |
|---|---|---|---|---|---|---|---|
| 1777702801 | 18.33° C | 51% | 1024.8 hPa | - | - | - | - |
| 1777702201 | 17.22° C | 52% | 1024.9 hPa | - | - | - | - |
| 1777701001 | 17.22° C | 53% | 1024.8 hPa | - | - | - | - |
| 1777700401 | 17.78° C | 52% | 1024.8 hPa | - | - | - | - |
| 1777699801 | 16.67° C | 55% | 1024.9 hPa | - | - | - | - |
| 1777698601 | 14.44° C | 61% | 1024.9 hPa | - | - | - | - |
| 1777698001 | 13.33° C | 63% | 1024.8 hPa | - | - | - | - |
| 1777697401 | 12.22° C | 66% | 1024.8 hPa | - | - | - | - |
| 1777696801 | 12.22° C | 68% | 1024.7 hPa | - | - | - | - |
| 1777696201 | 11.67° C | 70% | 1024.6 hPa | - | - | - | - |
| 1777695601 | 9.44° C | 82% | 1024.6 hPa | - | - | - | - |
| 1777694401 | 5.56° C | 97% | 1024.4 hPa | - | - | - | - |
| 1777693801 | 5° C | 97% | - | - | - | - | - |
| 1777693201 | 5° C | 97% | 1024.4 hPa | - | - | - | - |
| 1777692601 | 5° C | 97% | 1024.4 hPa | - | - | - | - |
| 1777692001 | 5° C | 97% | 1024.4 hPa | - | - | - | - |
| 1777691401 | 5° C | 97% | 1024.4 hPa | - | - | - | - |
| 1777690800 | 5° C | 97% | 1024.5 hPa | - | - | - | - |
| 1777690200 | 5° C | 96% | 1024.4 hPa | - | - | - | - |
| 1777689600 | 5.56° C | 96% | 1024.3 hPa | - | - | - | - |
| 1777689000 | 5.56° C | 95% | 1024.3 hPa | - | - | - | - |
| 1777687771 | 5.56° C | 94% | 1024.3 hPa | - | - | - | - |
| 1777673401 | 9.44° C | 75% | 1024.7 hPa | - | - | - | - |
| 1777670401 | 10.56° C | 70% | 1024.6 hPa | - | - | - | - |
| 1777665601 | 12.78° C | 61% | 1024.6 hPa | - | - | - | - |
* Rain since midnight (hover to see other rain measurements)
** Current wind speed in m/s (hover to see current wind gust speed)